createdAt,value
2018-07-12T00:01:35.287Z,7.30
2018-07-12T00:04:02.587Z,4.60
2018-07-12T00:06:29.962Z,6.30
2018-07-12T00:08:57.291Z,3.80
2018-07-12T00:11:24.579Z,5.10
2018-07-12T00:13:51.875Z,9.10
2018-07-12T00:16:19.208Z,4.37
2018-07-12T00:18:46.508Z,4.20
2018-07-12T00:21:13.796Z,7.77
2018-07-12T00:23:41.325Z,12.30
2018-07-12T00:26:08.620Z,7.50
2018-07-12T00:28:35.913Z,9.17
2018-07-12T00:31:03.381Z,5.87
2018-07-12T00:33:30.745Z,4.63
2018-07-12T00:35:58.055Z,4.87
2018-07-12T00:38:25.531Z,10.73
2018-07-12T00:40:52.803Z,4.97
2018-07-12T00:43:21.381Z,5.37
2018-07-12T00:45:48.947Z,5.37
2018-07-12T00:48:16.266Z,5.00
2018-07-12T00:50:43.558Z,6.17
2018-07-12T00:53:10.883Z,5.30
2018-07-12T00:55:38.176Z,4.97
2018-07-12T00:58:05.542Z,5.30
2018-07-12T01:00:33.083Z,4.97
2018-07-12T01:03:00.445Z,5.70
2018-07-12T01:05:27.812Z,5.80
2018-07-12T01:07:55.343Z,7.13
2018-07-12T01:10:22.708Z,4.97
2018-07-12T01:12:49.991Z,5.00
2018-07-12T01:15:17.315Z,5.27
2018-07-12T01:17:44.631Z,6.13
2018-07-12T01:20:11.984Z,8.83
2018-07-12T01:22:39.695Z,5.07
2018-07-12T01:25:07.035Z,4.53
2018-07-12T01:27:34.356Z,5.47
2018-07-12T01:30:01.840Z,5.87
2018-07-12T01:32:29.148Z,4.80
2018-07-12T01:34:56.475Z,6.10
2018-07-12T01:37:23.896Z,6.17
2018-07-12T01:39:51.187Z,5.50
2018-07-12T01:42:18.568Z,7.83
2018-07-12T01:44:46.069Z,10.27
2018-07-12T01:47:13.356Z,6.03
2018-07-12T01:49:40.811Z,4.30
2018-07-12T01:52:08.153Z,5.30
2018-07-12T01:54:35.439Z,4.17
2018-07-12T01:57:02.863Z,5.40
2018-07-12T01:59:30.325Z,4.93
2018-07-12T02:01:57.612Z,5.90
2018-07-12T02:04:24.892Z,4.33
2018-07-12T02:06:52.363Z,5.30
2018-07-12T02:09:19.751Z,5.63
2018-07-12T02:11:47.084Z,5.40
2018-07-12T02:14:14.640Z,9.87
2018-07-12T02:16:41.931Z,6.93
2018-07-12T02:19:09.331Z,5.57
2018-07-12T02:21:36.647Z,7.93
2018-07-12T02:24:03.935Z,5.27
2018-07-12T02:26:31.227Z,6.40
2018-07-12T02:28:58.782Z,4.70
2018-07-12T02:31:26.067Z,5.80
2018-07-12T02:33:53.647Z,7.13
2018-07-12T02:36:21.444Z,4.40
2018-07-12T02:38:48.791Z,4.30
2018-07-12T02:41:16.078Z,6.63
2018-07-12T02:43:43.431Z,10.03
2018-07-12T02:46:10.877Z,6.43
2018-07-12T02:48:38.417Z,12.20
2018-07-12T02:51:05.974Z,7.83
2018-07-12T02:53:33.284Z,6.53
2018-07-12T02:56:00.592Z,6.83
2018-07-12T02:58:27.940Z,9.40
2018-07-12T03:00:55.234Z,7.00
2018-07-12T03:03:22.526Z,7.83
2018-07-12T03:05:49.844Z,9.20
2018-07-12T03:08:17.217Z,8.43
2018-07-12T03:10:44.508Z,11.17
2018-07-12T03:13:12.133Z,12.83
2018-07-12T03:15:39.427Z,9.50
2018-07-12T03:18:06.722Z,6.50
2018-07-12T03:20:34.531Z,6.90
2018-07-12T03:23:01.872Z,8.50
2018-07-12T03:25:29.174Z,8.67
2018-07-12T03:27:56.811Z,10.63
2018-07-12T03:30:24.096Z,11.03
2018-07-12T03:32:51.400Z,5.70
2018-07-12T03:35:18.860Z,7.23
2018-07-12T03:37:46.440Z,7.30
2018-07-12T03:40:13.767Z,10.90
2018-07-12T03:42:41.351Z,8.70
2018-07-12T03:45:08.636Z,11.23
2018-07-12T03:47:35.928Z,13.43
2018-07-12T03:50:03.614Z,8.30
2018-07-12T03:52:30.906Z,10.83
2018-07-12T03:54:58.196Z,7.70
2018-07-12T03:57:25.890Z,6.07
2018-07-12T03:59:53.181Z,9.50
2018-07-12T04:02:20.664Z,7.90
2018-07-12T04:04:48.143Z,11.80
2018-07-12T04:07:15.528Z,8.13
2018-07-12T04:09:42.824Z,9.40
2018-07-12T04:12:10.183Z,19.93
2018-07-12T04:14:37.455Z,6.57
2018-07-12T04:17:04.781Z,5.73
2018-07-12T04:19:32.267Z,7.23
2018-07-12T04:21:59.580Z,9.57
2018-07-12T04:24:26.902Z,9.07
2018-07-12T04:26:54.440Z,8.13
2018-07-12T04:29:21.783Z,15.60
2018-07-12T04:31:49.169Z,7.13
2018-07-12T04:34:16.928Z,6.43
2018-07-12T04:36:44.225Z,12.10
2018-07-12T04:39:11.532Z,13.50
2018-07-12T04:41:38.872Z,18.80
2018-07-12T04:44:06.235Z,8.20
2018-07-12T04:46:33.661Z,8.30
2018-07-12T04:49:00.988Z,14.60
2018-07-12T04:51:28.407Z,13.87
2018-07-12T04:53:55.729Z,9.30
2018-07-12T04:56:23.235Z,10.30
2018-07-12T04:58:50.523Z,6.67
2018-07-12T05:01:17.835Z,8.07
2018-07-12T05:03:45.171Z,8.33
2018-07-12T05:06:12.534Z,7.60
2018-07-12T05:08:39.979Z,8.90
2018-07-12T05:11:07.302Z,8.10
2018-07-12T05:13:34.620Z,13.03
2018-07-12T05:16:02.021Z,9.30
2018-07-12T05:18:29.613Z,10.63
2018-07-12T05:20:56.977Z,11.50
2018-07-12T05:23:24.279Z,19.47
2018-07-12T05:25:51.612Z,12.10
2018-07-12T05:28:18.904Z,11.03
2018-07-12T05:30:46.215Z,10.83
2018-07-12T05:33:13.644Z,11.57
2018-07-12T05:35:42.497Z,13.03
2018-07-12T05:38:11.695Z,12.60
2018-07-12T05:40:40.723Z,14.30
2018-07-12T05:43:09.591Z,8.63
2018-07-12T05:45:38.359Z,12.10
2018-07-12T05:48:07.200Z,7.40
2018-07-12T05:50:36.372Z,11.30
2018-07-12T05:53:05.039Z,12.20
2018-07-12T05:55:33.764Z,10.20
2018-07-12T05:58:02.388Z,10.83
2018-07-12T06:00:30.988Z,27.30
2018-07-12T06:02:59.921Z,35.73
2018-07-12T06:05:28.620Z,14.17
2018-07-12T06:07:57.347Z,16.00
2018-07-12T06:10:26.780Z,22.13
2018-07-12T06:12:55.579Z,12.63
2018-07-12T06:15:24.311Z,12.37
2018-07-12T06:17:53.244Z,15.70
2018-07-12T06:20:21.787Z,12.87
2018-07-12T06:22:50.895Z,13.60
2018-07-12T06:25:19.853Z,12.43
2018-07-12T06:27:48.452Z,11.03
2018-07-12T06:30:17.054Z,12.63
2018-07-12T06:32:45.879Z,16.73
2018-07-12T06:35:14.548Z,14.40
2018-07-12T06:37:43.311Z,15.60
2018-07-12T06:40:12.052Z,15.70
2018-07-12T06:42:40.734Z,13.63
2018-07-12T06:45:09.355Z,16.10
2018-07-12T06:47:37.956Z,12.33
2018-07-12T06:50:06.740Z,12.90
2018-07-12T06:52:35.292Z,10.03
2018-07-12T06:55:04.199Z,19.80
2018-07-12T06:57:32.959Z,10.73
2018-07-12T07:00:01.579Z,17.30
2018-07-12T07:02:30.196Z,17.33
2018-07-12T07:04:58.850Z,16.83
2018-07-12T07:07:27.615Z,26.87
2018-07-12T07:09:56.315Z,21.17
2018-07-12T07:12:25.092Z,21.20
2018-07-12T07:14:53.905Z,17.50
2018-07-12T07:17:22.542Z,15.80
2018-07-12T07:19:51.167Z,12.90
2018-07-12T07:22:19.859Z,16.93
2018-07-12T07:24:48.711Z,17.13
2018-07-12T07:27:17.254Z,24.63
2018-07-12T07:29:45.907Z,25.50
2018-07-12T07:32:14.617Z,17.83
2018-07-12T07:34:43.380Z,22.13
2018-07-12T07:37:11.900Z,29.07
2018-07-12T07:39:40.516Z,24.53
2018-07-12T07:42:09.148Z,22.00
2018-07-12T07:44:37.823Z,16.17
2018-07-12T07:47:06.959Z,17.80
2018-07-12T07:49:35.699Z,20.33
2018-07-12T07:52:04.383Z,20.97
2018-07-12T07:54:33.028Z,17.10
2018-07-12T07:57:01.612Z,22.70
2018-07-12T07:59:30.139Z,19.60
2018-07-12T08:01:58.818Z,18.17
2018-07-12T08:04:27.411Z,18.17
2018-07-12T08:06:56.092Z,25.03
2018-07-12T08:09:25.031Z,20.73
2018-07-12T08:11:53.624Z,17.83
2018-07-12T08:14:22.279Z,15.43
2018-07-12T08:16:51.199Z,18.27
2018-07-12T08:19:19.968Z,16.10
2018-07-12T08:21:49.086Z,17.60
2018-07-12T08:24:17.871Z,14.37
2018-07-12T08:26:46.503Z,17.63
2018-07-12T08:29:15.304Z,20.07
2018-07-12T08:31:44.112Z,27.17
2018-07-12T08:34:12.967Z,16.20
2018-07-12T08:36:41.666Z,16.63
2018-07-12T08:39:10.491Z,18.77
2018-07-12T08:41:39.136Z,16.57
2018-07-12T08:44:07.712Z,16.27
2018-07-12T08:46:36.328Z,15.30
2018-07-12T08:49:05.001Z,15.77
2018-07-12T08:51:33.794Z,18.63
2018-07-12T08:54:02.414Z,16.20
2018-07-12T08:56:31.408Z,10.37
2018-07-12T08:59:00.062Z,12.40
2018-07-12T09:01:28.871Z,11.07
2018-07-12T09:03:57.863Z,13.83
2018-07-12T09:06:26.731Z,12.57
2018-07-12T09:08:55.397Z,19.33
2018-07-12T09:11:23.943Z,14.00
2018-07-12T09:13:52.561Z,15.30
2018-07-12T09:16:21.488Z,15.47
2018-07-12T09:18:50.120Z,13.17
2018-07-12T09:21:18.978Z,9.17
2018-07-12T09:23:47.728Z,14.00
2018-07-12T09:26:16.340Z,12.70
2018-07-12T09:28:45.115Z,10.90
2018-07-12T09:31:14.076Z,8.90
2018-07-12T09:33:42.799Z,6.47
2018-07-12T09:36:12.363Z,11.30
2018-07-12T09:38:57.684Z,10.53
2018-07-12T09:41:26.363Z,7.37
2018-07-12T09:43:55.027Z,8.40
2018-07-12T09:46:23.766Z,12.73
2018-07-12T09:48:53.144Z,6.30
2018-07-12T09:51:21.886Z,17.37
2018-07-12T09:53:50.664Z,5.27
2018-07-12T09:56:19.441Z,6.77
2018-07-12T09:58:47.843Z,5.87
2018-07-12T10:01:22.333Z,5.13
2018-07-12T10:03:52.801Z,6.60
2018-07-12T10:06:27.303Z,3.70
2018-07-12T10:09:00.805Z,7.43
2018-07-12T10:11:35.175Z,7.73
2018-07-12T10:14:08.999Z,3.97
2018-07-12T10:16:43.159Z,3.70
2018-07-12T10:19:11.940Z,2.87
2018-07-12T10:21:40.731Z,2.90
2018-07-12T10:24:09.462Z,3.20
2018-07-12T10:26:38.005Z,5.77
2018-07-12T10:29:06.592Z,3.67
2018-07-12T10:31:35.233Z,5.03
2018-07-12T10:34:03.853Z,4.10
2018-07-12T10:36:32.641Z,2.90
2018-07-12T10:39:01.560Z,3.80
2018-07-12T10:41:30.344Z,3.30
2018-07-12T10:43:59.031Z,3.10
2018-07-12T10:46:27.939Z,5.03
2018-07-12T10:48:56.704Z,8.03
2018-07-12T10:51:25.609Z,12.40
2018-07-12T10:53:54.708Z,6.57
2018-07-12T10:56:23.412Z,8.20
2018-07-12T10:58:52.760Z,8.57
2018-07-12T11:01:21.379Z,7.90
2018-07-12T11:03:49.988Z,6.53
2018-07-12T11:06:18.672Z,8.80
2018-07-12T11:08:47.442Z,7.37
2018-07-12T11:11:16.256Z,13.03
2018-07-12T11:13:50.438Z,12.57
2018-07-12T11:16:19.211Z,14.43
2018-07-12T11:18:47.939Z,16.47
2018-07-12T11:21:16.898Z,7.60
2018-07-12T11:23:45.343Z,14.67
2018-07-12T11:26:14.120Z,9.03
2018-07-12T11:28:43.375Z,11.80
2018-07-12T11:31:12.149Z,9.77
2018-07-12T11:33:42.164Z,8.40
2018-07-12T11:36:11.445Z,9.87
2018-07-12T11:38:41.483Z,6.37
2018-07-12T11:41:10.528Z,5.43
2018-07-12T11:43:39.272Z,8.10
2018-07-12T11:46:09.323Z,5.10
2018-07-12T11:48:39.119Z,5.90
2018-07-12T11:51:07.753Z,4.57
2018-07-12T11:53:36.553Z,8.10
2018-07-12T11:56:05.346Z,5.43
2018-07-12T11:58:34.533Z,5.07
2018-07-12T12:01:03.468Z,7.43
2018-07-12T12:03:32.636Z,7.50
2018-07-12T12:06:01.648Z,4.70
2018-07-12T12:08:30.435Z,7.23
2018-07-12T12:10:59.143Z,8.47
2018-07-12T12:13:27.896Z,16.93
2018-07-12T12:15:56.603Z,9.80
2018-07-12T12:18:25.336Z,9.70
2018-07-12T12:20:53.936Z,9.70
2018-07-12T12:23:22.994Z,9.90
2018-07-12T12:25:51.947Z,11.43
2018-07-12T12:28:20.694Z,5.77
2018-07-12T12:30:49.647Z,8.87
2018-07-12T12:33:18.333Z,10.23
2018-07-12T12:35:47.127Z,7.30
2018-07-12T12:38:15.788Z,6.90
2018-07-12T12:40:44.333Z,4.70
2018-07-12T12:43:13.020Z,10.90
2018-07-12T12:45:42.068Z,9.10
2018-07-12T12:48:10.723Z,17.23
2018-07-12T12:50:39.554Z,4.00
2018-07-12T12:53:08.274Z,6.53
2018-07-12T12:55:36.924Z,4.60
2018-07-12T12:58:05.787Z,5.03
2018-07-12T13:00:34.527Z,6.30
2018-07-12T13:03:03.236Z,12.70
2018-07-12T13:05:31.807Z,5.87
2018-07-12T13:08:00.644Z,4.67
2018-07-12T13:10:29.459Z,5.40
2018-07-12T13:12:58.139Z,6.13
2018-07-12T13:15:26.784Z,5.90
2018-07-12T13:17:55.470Z,19.73
2018-07-12T13:20:24.191Z,18.93
2018-07-12T13:22:53.660Z,6.80
2018-07-12T13:25:22.499Z,8.27
2018-07-12T13:27:51.315Z,5.53
2018-07-12T13:30:20.264Z,9.50
2018-07-12T13:32:48.951Z,5.57
2018-07-12T13:35:17.903Z,6.67
2018-07-12T13:37:46.666Z,10.63
2018-07-12T13:40:15.520Z,9.87
2018-07-12T13:42:44.145Z,14.80
2018-07-12T13:45:12.924Z,6.17
2018-07-12T13:47:41.694Z,7.37
2018-07-12T13:50:10.487Z,6.23
2018-07-12T13:52:39.195Z,4.83
2018-07-12T13:55:08.009Z,7.77
2018-07-12T13:57:36.664Z,5.00
2018-07-12T14:00:05.862Z,14.10
2018-07-12T14:02:34.480Z,21.87
2018-07-12T14:05:03.242Z,7.30
2018-07-12T14:07:32.104Z,10.43
2018-07-12T14:10:00.844Z,5.10
2018-07-12T14:12:29.535Z,6.93
2018-07-12T14:14:58.436Z,4.87
2018-07-12T14:17:27.255Z,9.90
2018-07-12T14:19:55.882Z,6.03
2018-07-12T14:22:25.022Z,5.23
2018-07-12T14:24:53.704Z,6.47
2018-07-12T14:27:22.336Z,5.87
2018-07-12T14:29:51.192Z,6.60
2018-07-12T14:32:19.962Z,3.97
2018-07-12T14:34:48.603Z,4.10
2018-07-12T14:37:17.613Z,3.77
2018-07-12T14:39:46.946Z,7.90
2018-07-12T14:42:15.664Z,4.17
2018-07-12T14:44:44.704Z,4.30
2018-07-12T14:47:13.448Z,5.63
2018-07-12T14:49:42.455Z,5.43
2018-07-12T14:52:11.484Z,7.70
2018-07-12T14:54:40.026Z,3.73
2018-07-12T14:57:08.961Z,6.20
2018-07-12T14:59:38.563Z,5.00
2018-07-12T15:02:07.379Z,3.57
2018-07-12T15:04:35.987Z,5.13
2018-07-12T15:07:04.963Z,9.27
2018-07-12T15:09:33.691Z,4.93
2018-07-12T15:12:02.429Z,5.57
2018-07-12T15:14:31.289Z,8.67
2018-07-12T15:17:00.072Z,4.87
2018-07-12T15:19:28.816Z,3.63
2018-07-12T15:21:57.520Z,3.60
2018-07-12T15:24:26.287Z,5.53
2018-07-12T15:26:55.356Z,6.37
2018-07-12T15:29:24.225Z,8.63
2018-07-12T15:31:52.891Z,3.60
2018-07-12T15:34:21.595Z,4.67
2018-07-12T15:36:50.332Z,6.20
2018-07-12T15:39:19.091Z,3.87
2018-07-12T15:41:47.712Z,7.00
2018-07-12T15:44:16.399Z,4.70
2018-07-12T15:46:45.047Z,3.57
2018-07-12T15:49:13.945Z,10.17
2018-07-12T15:51:42.583Z,4.30
2018-07-12T15:54:11.376Z,6.27
2018-07-12T15:56:40.402Z,3.80
2018-07-12T15:59:09.088Z,9.10
2018-07-12T16:01:38.271Z,9.80
2018-07-12T16:04:07.184Z,6.43
2018-07-12T16:06:36.160Z,8.80
2018-07-12T16:09:06.622Z,9.70
2018-07-12T16:11:35.255Z,15.70
2018-07-12T16:14:03.995Z,4.57
2018-07-12T16:16:32.695Z,6.43
2018-07-12T16:19:01.409Z,13.83
2018-07-12T16:21:30.128Z,4.47
2018-07-12T16:23:58.815Z,3.10
2018-07-12T16:26:27.638Z,4.13
2018-07-12T16:28:56.454Z,4.63
2018-07-12T16:31:25.180Z,3.63
2018-07-12T16:33:54.055Z,3.00
2018-07-12T16:36:22.597Z,5.70
2018-07-12T16:38:51.491Z,3.43
2018-07-12T16:41:20.435Z,3.87
2018-07-12T16:43:49.636Z,5.73
2018-07-12T16:46:18.318Z,3.20
2018-07-12T16:48:47.676Z,6.07
2018-07-12T16:51:16.392Z,4.00
2018-07-12T16:53:45.071Z,17.83
2018-07-12T16:56:13.755Z,3.47
2018-07-12T16:58:42.412Z,4.47
2018-07-12T17:01:11.056Z,9.10
2018-07-12T17:03:39.692Z,4.80
2018-07-12T17:06:08.508Z,3.33
2018-07-12T17:08:37.215Z,4.73
2018-07-12T17:11:06.195Z,4.43
2018-07-12T17:13:34.792Z,2.33
2018-07-12T17:16:03.443Z,4.63
2018-07-12T17:18:32.196Z,2.73
2018-07-12T17:21:00.875Z,2.70
2018-07-12T17:23:29.524Z,3.70
2018-07-12T17:25:58.817Z,3.50
2018-07-12T17:28:28.172Z,8.07
2018-07-12T17:30:57.924Z,3.73
2018-07-12T17:33:26.585Z,4.63
2018-07-12T17:35:55.572Z,3.40
2018-07-12T17:38:24.591Z,3.60
2018-07-12T17:40:53.339Z,5.20
2018-07-12T17:43:22.100Z,5.50
2018-07-12T17:45:50.779Z,15.83
2018-07-12T17:48:19.386Z,3.17
2018-07-12T17:50:48.151Z,6.37
2018-07-12T17:53:16.841Z,5.00
2018-07-12T17:55:45.460Z,3.67
2018-07-12T17:58:14.027Z,8.80
2018-07-12T18:00:46.138Z,8.50
2018-07-12T18:03:19.435Z,3.57
2018-07-12T18:05:50.371Z,7.13
2018-07-12T18:08:19.429Z,3.57
2018-07-12T18:10:52.711Z,5.13
2018-07-12T18:13:22.176Z,6.43
2018-07-12T18:15:51.675Z,3.67
2018-07-12T18:18:20.829Z,4.63
2018-07-12T18:20:52.099Z,2.97
2018-07-12T18:23:23.066Z,5.13
2018-07-12T18:25:52.497Z,3.43
2018-07-12T18:28:21.803Z,4.87
2018-07-12T18:30:52.091Z,5.00
2018-07-12T18:33:20.882Z,5.90
2018-07-12T18:35:50.752Z,4.60
2018-07-12T18:38:22.286Z,8.00
2018-07-12T18:40:55.652Z,4.20
2018-07-12T18:43:29.083Z,9.50
2018-07-12T18:45:58.140Z,9.00
2018-07-12T18:48:30.109Z,4.83
2018-07-12T18:51:02.721Z,12.90
2018-07-12T18:53:35.612Z,5.40
2018-07-12T18:56:09.157Z,12.60
2018-07-12T18:58:41.219Z,9.60
2018-07-12T19:01:13.000Z,8.83
2018-07-12T19:03:43.514Z,4.90
2018-07-12T19:06:15.195Z,6.10
2018-07-12T19:08:46.242Z,6.57
2018-07-12T19:11:17.106Z,7.23
2018-07-12T19:13:48.682Z,5.00
2018-07-12T19:16:20.170Z,9.73
2018-07-12T19:18:52.107Z,8.30
2018-07-12T19:21:24.385Z,9.00
2018-07-12T19:23:53.471Z,6.03
2018-07-12T19:26:22.123Z,11.30
2018-07-12T19:28:51.068Z,5.80
2018-07-12T19:31:19.876Z,8.30
2018-07-12T19:33:48.640Z,17.63
2018-07-12T19:36:17.344Z,9.83
2018-07-12T19:38:46.083Z,10.53
2018-07-12T19:41:14.817Z,8.83
2018-07-12T19:43:43.697Z,11.13
2018-07-12T19:46:12.412Z,8.63
2018-07-12T19:48:40.983Z,8.00
2018-07-12T19:51:09.796Z,13.73
2018-07-12T19:53:38.620Z,5.53
2018-07-12T19:56:07.675Z,11.20
2018-07-12T19:58:36.231Z,8.83
2018-07-12T20:01:05.032Z,8.70
2018-07-12T20:03:33.764Z,9.37
2018-07-12T20:06:02.532Z,8.60
2018-07-12T20:08:31.476Z,8.57
2018-07-12T20:11:00.161Z,14.40
2018-07-12T20:13:29.007Z,6.47
2018-07-12T20:15:58.932Z,11.00
2018-07-12T20:18:27.593Z,7.60
2018-07-12T20:20:59.048Z,9.40
2018-07-12T20:23:27.988Z,9.43
2018-07-12T20:25:56.755Z,9.70
2018-07-12T20:28:25.853Z,8.10
2018-07-12T20:30:55.141Z,8.67
2018-07-12T20:33:23.823Z,9.80
2018-07-12T20:35:52.919Z,7.27
2018-07-12T20:38:21.641Z,7.60
2018-07-12T20:40:50.285Z,18.40
2018-07-12T20:43:20.404Z,10.53
2018-07-12T20:45:49.427Z,10.23
2018-07-12T20:48:18.499Z,10.53
2018-07-12T20:50:47.187Z,8.33
2018-07-12T20:53:16.203Z,16.13
2018-07-12T20:55:44.921Z,6.30
2018-07-12T20:58:13.584Z,7.60
2018-07-12T21:00:42.767Z,10.33
2018-07-12T21:03:11.407Z,8.03
2018-07-12T21:05:40.083Z,8.13
2018-07-12T21:08:08.927Z,15.40
2018-07-12T21:10:37.668Z,12.10
2018-07-12T21:13:06.467Z,10.07
2018-07-12T21:15:40.678Z,10.50
2018-07-12T21:18:09.483Z,14.50
2018-07-12T21:20:38.299Z,11.57
2018-07-12T21:23:07.588Z,10.13
2018-07-12T21:25:36.400Z,9.37
2018-07-12T21:28:05.191Z,15.97
2018-07-12T21:30:33.955Z,10.10
2018-07-12T21:33:02.710Z,7.23
2018-07-12T21:35:31.572Z,14.33
2018-07-12T21:38:00.651Z,16.00
2018-07-12T21:40:29.367Z,13.97
2018-07-12T21:42:58.127Z,11.60
2018-07-12T21:45:26.776Z,10.53
2018-07-12T21:47:55.319Z,7.50
2018-07-12T21:50:24.041Z,11.00
2018-07-12T21:52:52.767Z,9.50
2018-07-12T21:55:21.484Z,7.20
2018-07-12T21:57:50.135Z,11.60
2018-07-12T22:00:19.107Z,8.00
2018-07-12T22:02:48.117Z,8.97
2018-07-12T22:05:16.637Z,10.37
2018-07-12T22:07:58.691Z,9.37
2018-07-12T22:10:27.888Z,13.13
2018-07-12T22:12:56.525Z,6.83
2018-07-12T22:15:25.203Z,14.47
2018-07-12T22:17:53.849Z,7.73
2018-07-12T22:20:22.468Z,9.13
2018-07-12T22:22:51.313Z,12.20
2018-07-12T22:25:20.375Z,8.67
2018-07-12T22:27:49.127Z,12.50
2018-07-12T22:30:17.843Z,8.33
2018-07-12T22:32:46.371Z,10.03
2018-07-12T22:35:15.099Z,11.97
2018-07-12T22:37:43.744Z,10.77
2018-07-12T22:40:12.509Z,11.63
2018-07-12T22:42:41.487Z,7.80
2018-07-12T22:45:10.544Z,10.87
2018-07-12T22:47:39.355Z,6.77
2018-07-12T22:50:08.216Z,13.70
2018-07-12T22:52:37.064Z,10.93
2018-07-12T22:55:05.807Z,8.77
2018-07-12T22:57:34.512Z,9.30
2018-07-12T23:00:03.545Z,23.13
2018-07-12T23:02:32.321Z,12.90
2018-07-12T23:05:01.026Z,10.13
2018-07-12T23:07:30.012Z,7.60
2018-07-12T23:09:59.016Z,17.83
2018-07-12T23:12:28.074Z,8.23
2018-07-12T23:14:57.171Z,9.53
2018-07-12T23:17:25.932Z,15.63
2018-07-12T23:19:54.678Z,9.43
2018-07-12T23:22:23.568Z,11.00
2018-07-12T23:24:52.394Z,18.93
2018-07-12T23:27:21.054Z,10.20
2018-07-12T23:29:49.729Z,12.30
2018-07-12T23:32:18.361Z,13.30
2018-07-12T23:34:46.996Z,13.37
2018-07-12T23:37:15.873Z,16.47
2018-07-12T23:39:44.581Z,11.00
2018-07-12T23:42:13.267Z,10.33
2018-07-12T23:44:41.972Z,10.50
2018-07-12T23:47:10.644Z,11.27
2018-07-12T23:49:39.362Z,11.67
2018-07-12T23:52:08.019Z,10.47
2018-07-12T23:54:36.592Z,11.07
2018-07-12T23:57:05.208Z,10.33
2018-07-12T23:59:34.350Z,12.10
